Darstellungsparameter: Aktuell verwendete Einstellungen:
Skalierung der Graphiken ... ?
xyx+y,   Skalierungsfaktor:      Skalierung: Modus: x, Faktor: 1
Darstellungszeitraum ... ?
Vom - - bis: - -   Zeitraum: 21.09.2011 - 21.09.2011
Min/Max/Avg-Anzeige ... ?
Zeige MMA aktuell
Zeige MMA Monat
Zeige MMA alles
Zeige --A aktuell
Zeige --A Monat
Zeige --A alles
Keine MMA-Anzeige
MMA:
Average (ber die Originaldaten)
MMA-Basis: 21.09.2011 - 21.09.2011
Quicknavigation für Darstellung... ?
Tage:      1T, 2T, 3T, 5T -1T -2T -3T -5T +1T +2T +3T +5T
Wochen: 1W, 2W, 3W -1W -2W -3W +1W +2W +3W
Monate: 1M, 3M, 6M -1M -3M -6M +1M +3M +6M
Jahre:    1J, 3J, 5J, 10J -1J -3J -5J -10J +1J +3J +5J +10J
Nutze für die Darstellung ... ?
Originaldaten oder Mittelwerte auf ...
Stundenbasis Tagesbasis Wochenbasis
Monatsbasis Jahresbasis      Datenbasis: Original-Daten
Darstellen als:
Statistik (Auto) Statistik J:M      Darstellung:
Zur Graphik,    zurück zur Übersicht aller Sensoren.
 
Tabellarische Datenbersicht: ?
 
Sensor: Nr:Datum:Temp:Abs-Feuchte:Windchill:Wind:
Aussen-T/F 1 21-09-2011 00:03:02 10.2 C 8.18 g/m*3 10.2 C 0 km/h
2 21-09-2011 00:15:01 9.9 C 8.12 g/m*3 9.9 C 0 km/h
3 21-09-2011 00:27:01 9.9 C 8.22 g/m*3 9.9 C 0 km/h
4 21-09-2011 00:39:02 9.6 C 8.06 g/m*3 9.6 C 0 km/h
5 21-09-2011 00:51:02 9.4 C 7.96 g/m*3 9.4 C 0 km/h
6 21-09-2011 01:03:02 9.3 C 7.91 g/m*3 9.3 C 0 km/h
7 21-09-2011 01:15:02 9.2 C 7.86 g/m*3 9.2 C 0 km/h
8 21-09-2011 01:27:02 9 C 7.76 g/m*3 9 C 0 km/h
9 21-09-2011 01:39:02 8.9 C 7.8 g/m*3 8.9 C 0 km/h
10 21-09-2011 01:51:02 9 C 7.76 g/m*3 9 C 0 km/h
11 21-09-2011 02:03:02 9 C 7.76 g/m*3 9 C 0 km/h
12 21-09-2011 02:15:02 8.8 C 7.75 g/m*3 8.8 C 0 km/h
13 21-09-2011 02:27:02 8.7 C 7.7 g/m*3 8.7 C 0 km/h
14 21-09-2011 02:39:02 8.3 C 7.5 g/m*3 8.3 C 0 km/h
15 21-09-2011 02:52:03 8.4 C 7.55 g/m*3 8.4 C 0 km/h
16 21-09-2011 03:04:03 8.4 C 7.55 g/m*3 8.4 C 0 km/h
17 21-09-2011 03:16:03 8 C 7.36 g/m*3 8 C 0 km/h
18 21-09-2011 03:28:03 8.2 C 7.45 g/m*3 8.2 C 0 km/h
19 21-09-2011 03:40:02 7.9 C 7.39 g/m*3 7.9 C 0 km/h
20 21-09-2011 03:52:02 7.8 C 7.35 g/m*3 7.8 C 0 km/h
21 21-09-2011 04:04:02 7.7 C 7.3 g/m*3 7.7 C 0 km/h
22 21-09-2011 04:16:02 7.5 C 7.2 g/m*3 7.5 C 0 km/h
23 21-09-2011 04:28:03 7.6 C 7.25 g/m*3 7.6 C 0 km/h
24 21-09-2011 04:40:02 7.8 C 7.35 g/m*3 7.8 C 0 km/h
25 21-09-2011 04:52:02 7.8 C 7.35 g/m*3 7.8 C 0 km/h
Sensor: Nr:Datum:Temp:Abs-Feuchte:Windchill:Wind:
Aussen-T/F 26 21-09-2011 05:04:01 7.9 C 7.47 g/m*3 7.9 C 0 km/h
27 21-09-2011 05:16:02 8.5 C 7.68 g/m*3 8.5 C 0 km/h
28 21-09-2011 05:28:02 8.4 C 7.63 g/m*3 8.4 C 0 km/h
29 21-09-2011 05:40:02 8 C 7.44 g/m*3 8 C 0 km/h
30 21-09-2011 05:52:01 8.6 C 7.82 g/m*3 8.6 C 0 km/h
31 21-09-2011 06:04:02 9 C 7.93 g/m*3 9 C 0 km/h
32 21-09-2011 06:16:01 9.1 C 7.99 g/m*3 9.1 C 0 km/h
33 21-09-2011 06:28:01 9.2 C 8.04 g/m*3 9.2 C 0 km/h
34 21-09-2011 06:40:02 9.3 C 8.18 g/m*3 9.3 C 0 km/h
35 21-09-2011 06:52:02 9.3 C 8.18 g/m*3 9.3 C 0 km/h
36 21-09-2011 07:04:02 9.5 C 8.28 g/m*3 9.5 C 0 km/h
37 21-09-2011 07:16:01 9.5 C 8.28 g/m*3 9.5 C 0 km/h
38 21-09-2011 07:28:01 9.5 C 8.28 g/m*3 9.5 C 0 km/h
39 21-09-2011 07:40:02 9.6 C 8.34 g/m*3 9.6 C 0 km/h
40 21-09-2011 07:52:01 9.7 C 8.39 g/m*3 9.7 C 0 km/h
41 21-09-2011 08:04:02 9.7 C 8.39 g/m*3 9.7 C 0 km/h
42 21-09-2011 08:16:02 9.8 C 8.44 g/m*3 9.8 C 0 km/h
43 21-09-2011 08:28:02 9.9 C 8.5 g/m*3 9.9 C 0 km/h
44 21-09-2011 08:40:01 10 C 8.36 g/m*3 10 C 0 km/h
45 21-09-2011 08:52:02 10.4 C 8.58 g/m*3 10.4 C 0 km/h
46 21-09-2011 09:04:02 10.8 C 8.8 g/m*3 10.8 C 0 km/h
47 21-09-2011 09:16:01 11.1 C 8.86 g/m*3 11.1 C 0 km/h
48 21-09-2011 09:28:01 11.1 C 8.76 g/m*3 11.1 C 0 km/h
49 21-09-2011 09:40:01 11.9 C 9.11 g/m*3 11.9 C 0 km/h
50 21-09-2011 09:52:01 12.2 C 8.74 g/m*3 12.2 C 0 km/h
Sensor: Nr:Datum:Temp:Abs-Feuchte:Windchill:Wind:
Aussen-T/F 51 21-09-2011 10:04:01 12.5 C 8.58 g/m*3 12.5 C 0 km/h
52 21-09-2011 10:16:02 12.8 C 8.51 g/m*3 12.8 C 0 km/h
53 21-09-2011 10:28:02 13.2 C 8.27 g/m*3 13.2 C 0 km/h
54 21-09-2011 10:40:01 13.5 C 8.19 g/m*3 13.5 C 0 km/h
55 21-09-2011 10:52:02 14.3 C 8.11 g/m*3 14.3 C 0 km/h
56 21-09-2011 11:04:02 14.3 C 7.99 g/m*3 14.3 C 0 km/h
57 21-09-2011 11:16:02 13.7 C 8.05 g/m*3 13.7 C 0 km/h
58 21-09-2011 11:28:02 13.5 C 8.54 g/m*3 13.5 C 0 km/h
59 21-09-2011 11:40:01 13.9 C 8.87 g/m*3 13.9 C 0 km/h
60 21-09-2011 11:52:02 14 C 9.17 g/m*3 14 C 0 km/h
61 21-09-2011 12:04:01 14.5 C 9.08 g/m*3 14.5 C 0 km/h
62 21-09-2011 12:16:01 14.8 C 9.25 g/m*3 14.8 C 0 km/h
63 21-09-2011 12:28:01 15.4 C 9.2 g/m*3 15.4 C 0 km/h
64 21-09-2011 12:40:02 16.1 C 8.36 g/m*3 16.1 C 0 km/h
65 21-09-2011 12:52:02 16.9 C 8.77 g/m*3 16.9 C 0 km/h
66 21-09-2011 13:04:02 18 C 8.75 g/m*3 18 C 0 km/h
67 21-09-2011 13:16:01 19.2 C 7.09 g/m*3 19.2 C 0 km/h
68 21-09-2011 13:28:01 19.4 C 7.67 g/m*3 19.4 C 0 km/h
69 21-09-2011 13:40:02 21 C 6.78 g/m*3 21 C 0 km/h
70 21-09-2011 13:52:02 21.1 C 7.37 g/m*3 21.1 C 0 km/h
71 21-09-2011 14:04:02 20.3 C 7.21 g/m*3 20.3 C 0 km/h
72 21-09-2011 14:16:01 19.5 C 7.05 g/m*3 19.5 C 0 km/h
73 21-09-2011 14:28:01 19.6 C 7.26 g/m*3 19.6 C 0 km/h
74 21-09-2011 14:40:02 19.7 C 7.3 g/m*3 19.7 C 0 km/h
75 21-09-2011 14:52:02 20 C 7.09 g/m*3 20 C 0 km/h
Sensor: Nr:Datum:Temp:Abs-Feuchte:Windchill:Wind:
Aussen-T/F 76 21-09-2011 15:04:02 20 C 6.74 g/m*3 20 C 0 km/h
77 21-09-2011 15:16:02 19.7 C 6.96 g/m*3 19.7 C 0 km/h
78 21-09-2011 15:28:02 20.3 C 7.03 g/m*3 20.3 C 0 km/h
79 21-09-2011 15:40:02 20.6 C 6.8 g/m*3 20.6 C 0 km/h
80 21-09-2011 15:52:02 23.1 C 7.03 g/m*3 23.1 C 0 km/h
81 21-09-2011 16:04:02 23.4 C 6.94 g/m*3 23.4 C 0 km/h
82 21-09-2011 16:16:02 22.9 C 6.54 g/m*3 22.9 C 0 km/h
83 21-09-2011 16:28:02 23.5 C 6.77 g/m*3 23.5 C 0 km/h
84 21-09-2011 16:40:01 23.7 C 6.63 g/m*3 23.7 C 0 km/h
85 21-09-2011 16:52:02 23.2 C 6.65 g/m*3 23.2 C 0 km/h
86 21-09-2011 17:04:02 20.8 C 6.88 g/m*3 20.8 C 0 km/h
87 21-09-2011 17:16:02 20.1 C 7.3 g/m*3 20.1 C 0 km/h
88 21-09-2011 17:28:03 19.4 C 7.67 g/m*3 19.4 C 0 km/h
89 21-09-2011 17:40:01 19.5 C 7.38 g/m*3 19.5 C 0 km/h
90 21-09-2011 17:52:02 19.1 C 6.72 g/m*3 19.1 C 0 km/h
91 21-09-2011 18:04:01 19.1 C 6.88 g/m*3 19.1 C 0 km/h
92 21-09-2011 18:16:01 20.4 C 7.08 g/m*3 20.4 C 0 km/h
93 21-09-2011 18:28:01 19 C 6.84 g/m*3 19 C 0 km/h
94 21-09-2011 18:40:02 17.3 C 7.37 g/m*3 17.3 C 0 km/h
95 21-09-2011 18:52:02 16.3 C 7.77 g/m*3 16.3 C 0 km/h
96 21-09-2011 19:04:02 16.2 C 8.14 g/m*3 16.2 C 0 km/h
97 21-09-2011 19:16:02 16.2 C 7.86 g/m*3 16.2 C 0 km/h
98 21-09-2011 19:28:02 16.2 C 8.14 g/m*3 16.2 C 0 km/h
99 21-09-2011 19:40:02 15.6 C 8.38 g/m*3 15.6 C 0 km/h
100 21-09-2011 19:52:02 15.4 C 8.41 g/m*3 15.4 C 0 km/h
Sensor: Nr:Datum:Temp:Abs-Feuchte:Windchill:Wind:
Aussen-T/F 101 21-09-2011 20:04:02 15.4 C 8.54 g/m*3 15.4 C 0 km/h
102 21-09-2011 20:16:02 15.4 C 8.67 g/m*3 15.4 C 0 km/h
103 21-09-2011 20:28:02 15.4 C 8.54 g/m*3 15.4 C 0 km/h
104 21-09-2011 20:40:02 15.3 C 8.62 g/m*3 15.3 C 0 km/h
105 21-09-2011 20:52:01 15.4 C 8.67 g/m*3 15.4 C 0 km/h
106 21-09-2011 21:04:02 15.3 C 8.62 g/m*3 15.3 C 0 km/h
107 21-09-2011 21:16:02 15.4 C 8.67 g/m*3 15.4 C 0 km/h
108 21-09-2011 21:28:02 15.4 C 8.67 g/m*3 15.4 C 0 km/h
109 21-09-2011 21:40:01 15.1 C 8.51 g/m*3 15.1 C 0 km/h
110 21-09-2011 21:52:02 14.4 C 8.41 g/m*3 14.4 C 0 km/h
111 21-09-2011 22:04:03 14 C 8.44 g/m*3 14 C 0 km/h
112 21-09-2011 22:16:02 13.8 C 8.58 g/m*3 13.8 C 0 km/h
113 21-09-2011 22:28:02 13.5 C 8.42 g/m*3 13.5 C 0 km/h
114 21-09-2011 22:40:02 13.4 C 8.49 g/m*3 13.4 C 0 km/h
115 21-09-2011 22:52:02 13.4 C 8.6 g/m*3 13.4 C 0 km/h
116 21-09-2011 23:04:02 13.6 C 8.71 g/m*3 13.6 C 0 km/h
117 21-09-2011 23:16:02 14 C 8.68 g/m*3 14 C 0 km/h
118 21-09-2011 23:28:02 14.3 C 8.85 g/m*3 14.3 C 0 km/h
119 21-09-2011 23:40:02 15 C 8.46 g/m*3 15 C 0 km/h
120 21-09-2011 23:52:02 15 C 8.59 g/m*3 15 C 0 km/h

Legende:
   Min
   Max


Maximal/Minimal-Werte vom 21.09.2011 - 21.09.2011

Sensor Min Max Avg
Temp
(Aussen-T/F)
7.5 °C
21-09-2011  04:16:02
23.7 °C
21-09-2011  16:40:01
13.78 °C
Abs-Feuchte
(Aussen-T/F)
6.54 g/m*3
21-09-2011  16:16:02
9.25 g/m*3
21-09-2011  12:16:01
7.88 g/m*3
Windchill
(Aussen-T/F)
7.5 C
21-09-2011  04:16:02
23.7 C
21-09-2011  16:40:01
13.66 C

Die Daten stammen von einer Davis Vantage Pro 2 Wetter-Station und werden unter Linux mit der Software wview2wettercgi und aufbereitet. Alle Angaben erfolgen ohne Gewähr für ihre Vollständigkeit oder Richtigkeit.
Kontakt: Rainer Krienke krienke@uni-koblenz.de . Meine Webseiten an der Uni Koblenz oder privat.
Version: $Revision: 0.78 $